CYPR

Prince Rupert Airport

Prince Rupert, , Canada
METAR CYPR 201325Z AUTO 13004KT 9SM -RA BKN055 BKN067 OVC082 10/09 A3027 RMK SLP252
Observed Flight Rules
Oct-20 @ 13:25 UTC (17 minutes ago) Visual Flight Rules
Wind Visibility Clouds Conditions
130° at 4 knots 9 miles
  • Broken at 5,500' AGL
  • Broken at 6,700' AGL
  • Overcast at 8,200' AGL
  • Light Rain
Temperatures Readings
Current 10°C / 50°F
Dewpoint 9°C / 48°F
Humidity 94%
Altimeter 30.27" Hg
Pressure 1025.2 hPa
Elevation 34
METAR CYPR 201325Z AUTO 13004KT 9SM -RA BKN055 BKN067 OVC082 10/09 A3027 RMK SLP252
Observed Flight Rules
Oct-20 @ 13:25 UTC
(17 minutes ago)
VFR
Wind Visibility
130° at 4 knots 9 miles
Clouds
  • Broken at 5,500' AGL
  • Broken at 6,700' AGL
  • Overcast at 8,200' AGL
Conditions
  • Light Rain
Temperature Dewpoint
10°C / 50°F 9°C / 48°F
Humidity Altimeter Pressure
94% 30.27" Hg 1025.2 hPa